Tümü
Granny Smith Airport (Granny Smith, Western Australia) YGRS Hava Durumu
There is no TAF data available at YGRS or any nearby airports.
There is no METAR data available at YGRS. Showing METAR data for YLTN (10 mi K).
Yakın zamandaki LVO METAR geçmişi (YGRS verisi yok)
| Date | Time (AWST) | Flight Rules | Wind Dir. | Speed | Type | Height AGL (ft) | Visibility | Temp (°C) | Temp (°F) | Dew Point (°C) | Dew Point (°F) | Rel. Humid. | Pressure | Density Altitude | Remarks |
|---|---|---|---|---|---|---|---|---|---|---|---|---|---|---|---|
| 05-May | 19:00 | n/a | 140° | 8 kt | Missing | 16° | 60° | 7° | 44° | 55% | 1026 mb | 1.505 ft | |||
| 05-May | 18:00 | n/a | 140° | 8 kt | Missing | 17° | 62° | 7° | 44° | 52% | 1025 mb | 1.654 ft | |||
| 05-May | 17:00 | n/a | 140° | 12 kt | Missing | 18° | 64° | 6° | 42° | 45% | 1025 mb | 1.774 ft | |||
| 05-May | 16:00 | n/a | 150° | 11 kt | Missing | 19° | 66° | 7° | 44° | 46% | 1024 mb | 1.924 ft | |||
| 05-May | 15:00 | n/a | 110° | 8 kt | Missing | 19° | 66° | 7° | 44° | 46% | 1024 mb | 1.924 ft | |||
| 05-May | 14:00 | n/a | 120° | 8 kt | Missing | 19° | 66° | 8° | 46° | 49% | 1024 mb | 1.924 ft | |||
| 05-May | 13:00 | n/a | 110° | 12 kt | Missing | 18° | 64° | 9° | 48° | 56% | 1025 mb | 1.774 ft | |||
| 05-May | 12:00 | n/a | 100° | 8 kt | Missing | 17° | 62° | 9° | 48° | 59% | 1026 mb | 1.625 ft | |||
| 05-May | 11:00 | n/a | 110° | 9 kt | Missing | 16° | 60° | 9° | 48° | 63% | 1027 mb | 1.475 ft | |||
| 05-May | 10:00 | n/a | 80° | 11 kt | Missing | 16° | 60° | 10° | 50° | 68% | 1027 mb | 1.475 ft | |||
| 05-May | 09:00 | n/a | 90° | 10 kt | Missing | 15° | 59° | 11° | 51° | 77% | 1027 mb | 1.355 ft | |||
| 05-May | 08:00 | n/a | 80° | 9 kt | Missing | 14° | 57° | 12° | 53° | 88% | 1027 mb | 1.235 ft | |||
| 05-May | 07:00 | n/a | 130° | 4 kt | Missing | 10° | 50° | 10° | 50° | 100% | 1026 mb | 785 ft | |||
| 05-May | 06:00 | n/a | 140° | 5 kt | Missing | 9° | 48° | 9° | 48° | 100% | 1026 mb | 665 ft | |||
| 05-May | 05:00 | n/a | 150° | 5 kt | Missing | 10° | 50° | 10° | 50° | 100% | 1026 mb | 785 ft | |||
| 05-May | 04:00 | n/a | 150° | 5 kt | Missing | 11° | 51° | 10° | 50° | 94% | 1026 mb | 905 ft | |||
| 05-May | 03:00 | n/a | 140° | 4 kt | Missing | 10° | 50° | 10° | 50° | 100% | 1026 mb | 785 ft | |||
| 05-May | 02:00 | n/a | 130° | 5 kt | Missing | 11° | 51° | 10° | 50° | 94% | 1026 mb | 905 ft | |||
| 05-May | 01:00 | n/a | 110° | 6 kt | Missing | 11° | 51° | 9° | 48° | 87% | 1026 mb | 905 ft | |||
| 05-May | 00:00 | n/a | 110° | 7 kt | Missing | 12° | 53° | 9° | 48° | 82% | 1026 mb | 1.025 ft | |||
| 04-May | 23:00 | n/a | 110° | 9 kt | Missing | 12° | 53° | 9° | 48° | 82% | 1026 mb | 1.025 ft | |||
| 04-May | 22:00 | n/a | 110° | 7 kt | Missing | 13° | 55° | 9° | 48° | 77% | 1026 mb | 1.145 ft | |||
| 04-May | 21:00 | n/a | 110° | 8 kt | Missing | 14° | 57° | 9° | 48° | 72% | 1027 mb | 1.235 ft | |||
| 04-May | 20:00 | n/a | 130° | 8 kt | Missing | 14° | 57° | 9° | 48° | 72% | 1026 mb | 1.265 ft |
Giriş
| Tarayıcınız desteklenmiyor. tarayıcınızı yükseltin |
